sensor_id;sensor_type;location;lat;lon;timestamp;temperature;humidity
26278;DHT22;14000;52.056;8.510;2023-04-01T00:00:47;9.10;99.90
26278;DHT22;14000;52.056;8.510;2023-04-01T00:03:13;9.10;99.90
26278;DHT22;14000;52.056;8.510;2023-04-01T00:05:39;9.10;99.90
26278;DHT22;14000;52.056;8.510;2023-04-01T00:08:05;9.10;99.90
26278;DHT22;14000;52.056;8.510;2023-04-01T00:10:30;9.10;99.90
26278;DHT22;14000;52.056;8.510;2023-04-01T00:12:56;9.10;99.90
26278;DHT22;14000;52.056;8.510;2023-04-01T00:15:22;9.10;99.90
26278;DHT22;14000;52.056;8.510;2023-04-01T00:17:47;9.10;99.90
26278;DHT22;14000;52.056;8.510;2023-04-01T00:20:13;9.10;99.90
26278;DHT22;14000;52.056;8.510;2023-04-01T00:22:40;9.10;99.90
26278;DHT22;14000;52.056;8.510;2023-04-01T00:25:05;9.00;99.90
26278;DHT22;14000;52.056;8.510;2023-04-01T00:27:31;9.00;99.90
26278;DHT22;14000;52.056;8.510;2023-04-01T00:29:57;9.00;99.90
26278;DHT22;14000;52.056;8.510;2023-04-01T00:32:22;9.00;99.90
26278;DHT22;14000;52.056;8.510;2023-04-01T00:34:51;9.00;99.90
26278;DHT22;14000;52.056;8.510;2023-04-01T00:37:17;9.10;99.90
26278;DHT22;14000;52.056;8.510;2023-04-01T00:39:43;9.00;99.90
26278;DHT22;14000;52.056;8.510;2023-04-01T00:42:10;9.00;99.90
26278;DHT22;14000;52.056;8.510;2023-04-01T00:44:37;9.00;99.90
26278;DHT22;14000;52.056;8.510;2023-04-01T00:47:03;9.00;99.90
26278;DHT22;14000;52.056;8.510;2023-04-01T00:49:40;9.00;99.90
26278;DHT22;14000;52.056;8.510;2023-04-01T00:52:08;8.90;99.90
26278;DHT22;14000;52.056;8.510;2023-04-01T00:54:36;8.90;99.90
26278;DHT22;14000;52.056;8.510;2023-04-01T00:57:10;8.90;99.90
26278;DHT22;14000;52.056;8.510;2023-04-01T00:59:41;8.90;99.90
26278;DHT22;14000;52.056;8.510;2023-04-01T01:02:11;8.90;99.90
26278;DHT22;14000;52.056;8.510;2023-04-01T01:04:38;8.90;99.90
26278;DHT22;14000;52.056;8.510;2023-04-01T01:12:56;8.90;99.90
26278;DHT22;14000;52.056;8.510;2023-04-01T01:15:41;8.90;99.90
26278;DHT22;14000;52.056;8.510;2023-04-01T01:18:19;8.90;99.90
26278;DHT22;14000;52.056;8.510;2023-04-01T01:21:05;8.90;99.90
26278;DHT22;14000;52.056;8.510;2023-04-01T01:35:20;8.90;99.90
26278;DHT22;14000;52.056;8.510;2023-04-01T01:37:47;8.80;99.90
26278;DHT22;14000;52.056;8.510;2023-04-01T01:40:15;8.80;99.90
26278;DHT22;14000;52.056;8.510;2023-04-01T01:42:45;8.80;99.90
26278;DHT22;14000;52.056;8.510;2023-04-01T01:45:13;8.80;99.90
26278;DHT22;14000;52.056;8.510;2023-04-01T01:47:40;8.80;99.90
26278;DHT22;14000;52.056;8.510;2023-04-01T01:50:07;8.80;99.90
26278;DHT22;14000;52.056;8.510;2023-04-01T01:52:33;8.80;99.90
26278;DHT22;14000;52.056;8.510;2023-04-01T01:54:59;8.80;99.90
26278;DHT22;14000;52.056;8.510;2023-04-01T01:57:34;8.80;99.90
26278;DHT22;14000;52.056;8.510;2023-04-01T02:00:09;8.80;99.90
26278;DHT22;14000;52.056;8.510;2023-04-01T02:02:42;8.80;99.90
26278;DHT22;14000;52.056;8.510;2023-04-01T02:05:11;8.80;99.90
26278;DHT22;14000;52.056;8.510;2023-04-01T02:07:43;8.80;99.90
26278;DHT22;14000;52.056;8.510;2023-04-01T02:10:12;8.80;99.90
26278;DHT22;14000;52.056;8.510;2023-04-01T02:12:38;8.80;99.90
26278;DHT22;14000;52.056;8.510;2023-04-01T02:15:14;8.80;99.90
26278;DHT22;14000;52.056;8.510;2023-04-01T02:17:43;8.80;99.90
26278;DHT22;14000;52.056;8.510;2023-04-01T02:20:17;8.80;99.90
26278;DHT22;14000;52.056;8.510;2023-04-01T02:22:56;8.80;99.90
26278;DHT22;14000;52.056;8.510;2023-04-01T02:25:27;8.70;99.90
26278;DHT22;14000;52.056;8.510;2023-04-01T02:27:56;8.70;99.90
26278;DHT22;14000;52.056;8.510;2023-04-01T02:30:23;8.70;99.90
26278;DHT22;14000;52.056;8.510;2023-04-01T02:32:49;8.80;99.90
26278;DHT22;14000;52.056;8.510;2023-04-01T02:35:16;8.80;99.90
26278;DHT22;14000;52.056;8.510;2023-04-01T02:37:43;8.80;99.90
26278;DHT22;14000;52.056;8.510;2023-04-01T02:40:12;8.70;99.90
26278;DHT22;14000;52.056;8.510;2023-04-01T02:42:38;8.70;99.90
26278;DHT22;14000;52.056;8.510;2023-04-01T02:45:05;8.70;99.90
26278;DHT22;14000;52.056;8.510;2023-04-01T02:47:30;8.70;99.90
26278;DHT22;14000;52.056;8.510;2023-04-01T02:49:56;8.70;99.90
26278;DHT22;14000;52.056;8.510;2023-04-01T02:52:28;8.70;99.90
26278;DHT22;14000;52.056;8.510;2023-04-01T02:54:54;8.70;99.90
26278;DHT22;14000;52.056;8.510;2023-04-01T02:57:20;8.70;99.90
26278;DHT22;14000;52.056;8.510;2023-04-01T02:59:46;8.70;99.90
26278;DHT22;14000;52.056;8.510;2023-04-01T03:02:12;8.70;99.90
26278;DHT22;14000;52.056;8.510;2023-04-01T03:04:37;8.70;99.90
26278;DHT22;14000;52.056;8.510;2023-04-01T03:07:03;8.70;99.90
26278;DHT22;14000;52.056;8.510;2023-04-01T03:09:29;8.70;99.90
26278;DHT22;14000;52.056;8.510;2023-04-01T03:11:55;8.70;99.90
26278;DHT22;14000;52.056;8.510;2023-04-01T03:14:21;8.70;99.90
26278;DHT22;14000;52.056;8.510;2023-04-01T03:16:46;8.70;99.90
26278;DHT22;14000;52.056;8.510;2023-04-01T03:19:12;8.70;99.90
26278;DHT22;14000;52.056;8.510;2023-04-01T03:21:37;8.70;99.90
26278;DHT22;14000;52.056;8.510;2023-04-01T03:24:03;8.70;99.90
26278;DHT22;14000;52.056;8.510;2023-04-01T03:26:29;8.70;99.90
26278;DHT22;14000;52.056;8.510;2023-04-01T03:28:55;8.70;99.90
26278;DHT22;14000;52.056;8.510;2023-04-01T03:31:21;8.70;99.90
26278;DHT22;14000;52.056;8.510;2023-04-01T03:33:47;8.70;99.90
26278;DHT22;14000;52.056;8.510;2023-04-01T03:36:13;8.70;99.90
26278;DHT22;14000;52.056;8.510;2023-04-01T03:38:43;8.70;99.90
26278;DHT22;14000;52.056;8.510;2023-04-01T03:41:16;8.70;99.90
26278;DHT22;14000;52.056;8.510;2023-04-01T03:43:42;8.70;99.90
26278;DHT22;14000;52.056;8.510;2023-04-01T03:46:08;8.70;99.90
26278;DHT22;14000;52.056;8.510;2023-04-01T03:48:34;8.60;99.90
26278;DHT22;14000;52.056;8.510;2023-04-01T03:50:59;8.70;99.90
26278;DHT22;14000;52.056;8.510;2023-04-01T03:53:25;8.70;99.90
26278;DHT22;14000;52.056;8.510;2023-04-01T03:55:52;8.70;99.90
26278;DHT22;14000;52.056;8.510;2023-04-01T03:58:18;8.70;99.90
26278;DHT22;14000;52.056;8.510;2023-04-01T04:00:44;8.60;99.90
26278;DHT22;14000;52.056;8.510;2023-04-01T04:03:09;8.60;99.90
26278;DHT22;14000;52.056;8.510;2023-04-01T04:05:35;8.60;99.90
26278;DHT22;14000;52.056;8.510;2023-04-01T04:08:01;8.60;99.90
26278;DHT22;14000;52.056;8.510;2023-04-01T04:10:26;8.60;99.90
26278;DHT22;14000;52.056;8.510;2023-04-01T04:12:54;8.70;99.90
26278;DHT22;14000;52.056;8.510;2023-04-01T04:15:21;8.60;99.90
26278;DHT22;14000;52.056;8.510;2023-04-01T04:17:47;8.70;99.90
26278;DHT22;14000;52.056;8.510;2023-04-01T04:20:13;8.60;99.90
26278;DHT22;14000;52.056;8.510;2023-04-01T04:22:38;8.60;99.90
26278;DHT22;14000;52.056;8.510;2023-04-01T04:25:04;8.60;99.90
26278;DHT22;14000;52.056;8.510;2023-04-01T04:27:30;8.60;99.90
26278;DHT22;14000;52.056;8.510;2023-04-01T04:29:55;8.60;99.90
26278;DHT22;14000;52.056;8.510;2023-04-01T04:32:21;8.60;99.90
26278;DHT22;14000;52.056;8.510;2023-04-01T04:34:46;8.60;99.90
26278;DHT22;14000;52.056;8.510;2023-04-01T04:37:12;8.60;99.90
26278;DHT22;14000;52.056;8.510;2023-04-01T04:39:38;8.60;99.90
26278;DHT22;14000;52.056;8.510;2023-04-01T04:42:03;8.60;99.90
26278;DHT22;14000;52.056;8.510;2023-04-01T04:44:29;8.60;99.90
26278;DHT22;14000;52.056;8.510;2023-04-01T04:46:54;8.60;99.90
26278;DHT22;14000;52.056;8.510;2023-04-01T04:49:20;8.60;99.90
26278;DHT22;14000;52.056;8.510;2023-04-01T04:51:46;8.60;99.90
26278;DHT22;14000;52.056;8.510;2023-04-01T04:54:11;8.60;99.90
26278;DHT22;14000;52.056;8.510;2023-04-01T04:56:37;8.60;99.90
26278;DHT22;14000;52.056;8.510;2023-04-01T04:59:02;8.60;99.90
26278;DHT22;14000;52.056;8.510;2023-04-01T05:01:28;8.60;99.90
26278;DHT22;14000;52.056;8.510;2023-04-01T05:03:54;8.60;99.90
26278;DHT22;14000;52.056;8.510;2023-04-01T05:06:19;8.60;99.90
26278;DHT22;14000;52.056;8.510;2023-04-01T05:08:45;8.60;99.90
26278;DHT22;14000;52.056;8.510;2023-04-01T05:11:17;8.70;99.90
26278;DHT22;14000;52.056;8.510;2023-04-01T05:13:44;8.50;99.90
26278;DHT22;14000;52.056;8.510;2023-04-01T05:16:12;8.50;99.90
26278;DHT22;14000;52.056;8.510;2023-04-01T05:18:37;8.50;99.90
26278;DHT22;14000;52.056;8.510;2023-04-01T05:21:03;8.50;99.90
26278;DHT22;14000;52.056;8.510;2023-04-01T05:23:31;8.60;99.90
26278;DHT22;14000;52.056;8.510;2023-04-01T05:25:56;8.60;99.90
26278;DHT22;14000;52.056;8.510;2023-04-01T05:28:22;8.50;99.90
26278;DHT22;14000;52.056;8.510;2023-04-01T05:30:48;8.50;99.90
26278;DHT22;14000;52.056;8.510;2023-04-01T05:33:14;8.60;99.90
26278;DHT22;14000;52.056;8.510;2023-04-01T05:35:40;8.60;99.90
26278;DHT22;14000;52.056;8.510;2023-04-01T05:38:06;8.50;99.90
26278;DHT22;14000;52.056;8.510;2023-04-01T05:40:32;8.50;99.90
26278;DHT22;14000;52.056;8.510;2023-04-01T05:42:58;8.60;99.90
26278;DHT22;14000;52.056;8.510;2023-04-01T05:45:24;8.60;99.90
26278;DHT22;14000;52.056;8.510;2023-04-01T05:47:50;8.50;99.90
26278;DHT22;14000;52.056;8.510;2023-04-01T05:50:16;8.50;99.90
26278;DHT22;14000;52.056;8.510;2023-04-01T05:52:42;8.50;99.90
26278;DHT22;14000;52.056;8.510;2023-04-01T05:55:08;8.50;99.90
26278;DHT22;14000;52.056;8.510;2023-04-01T05:57:33;8.50;99.90
26278;DHT22;14000;52.056;8.510;2023-04-01T05:59:59;8.50;99.90
26278;DHT22;14000;52.056;8.510;2023-04-01T06:02:25;8.60;99.90
26278;DHT22;14000;52.056;8.510;2023-04-01T06:05:01;8.50;99.90
26278;DHT22;14000;52.056;8.510;2023-04-01T06:07:27;8.60;99.90
26278;DHT22;14000;52.056;8.510;2023-04-01T06:09:54;8.60;99.90
26278;DHT22;14000;52.056;8.510;2023-04-01T06:12:49;8.60;99.90
26278;DHT22;14000;52.056;8.510;2023-04-01T06:15:49;9.60;99.90
26278;DHT22;14000;52.056;8.510;2023-04-01T06:32:12;8.80;99.90
26278;DHT22;14000;52.056;8.510;2023-04-01T06:48:15;8.90;99.90
26278;DHT22;14000;52.056;8.510;2023-04-01T06:51:01;8.90;99.90
26278;DHT22;14000;52.056;8.510;2023-04-01T06:56:26;8.90;99.90
26278;DHT22;14000;52.056;8.510;2023-04-01T06:58:58;8.90;99.90
26278;DHT22;14000;52.056;8.510;2023-04-01T07:01:45;8.80;99.90
26278;DHT22;14000;52.056;8.510;2023-04-01T07:04:16;8.80;99.90
26278;DHT22;14000;52.056;8.510;2023-04-01T07:06:52;8.80;99.90
26278;DHT22;14000;52.056;8.510;2023-04-01T07:09:40;8.80;99.90
26278;DHT22;14000;52.056;8.510;2023-04-01T07:12:18;8.80;99.90
26278;DHT22;14000;52.056;8.510;2023-04-01T07:14:48;8.80;99.90
26278;DHT22;14000;52.056;8.510;2023-04-01T07:17:20;8.90;99.90
26278;DHT22;14000;52.056;8.510;2023-04-01T07:20:01;8.70;99.90
26278;DHT22;14000;52.056;8.510;2023-04-01T07:22:44;8.70;99.90
26278;DHT22;14000;52.056;8.510;2023-04-01T07:25:17;8.80;99.90
26278;DHT22;14000;52.056;8.510;2023-04-01T07:27:44;8.80;99.90
26278;DHT22;14000;52.056;8.510;2023-04-01T07:30:16;8.70;99.90
26278;DHT22;14000;52.056;8.510;2023-04-01T07:35:30;8.80;99.90
26278;DHT22;14000;52.056;8.510;2023-04-01T07:38:09;8.80;99.90
26278;DHT22;14000;52.056;8.510;2023-04-01T07:43:39;8.90;99.90
26278;DHT22;14000;52.056;8.510;2023-04-01T07:46:19;8.90;99.90
26278;DHT22;14000;52.056;8.510;2023-04-01T07:52:00;8.90;99.90
26278;DHT22;14000;52.056;8.510;2023-04-01T07:54:40;9.00;99.90
26278;DHT22;14000;52.056;8.510;2023-04-01T08:05:48;9.10;99.90
26278;DHT22;14000;52.056;8.510;2023-04-01T08:08:19;9.10;99.90
26278;DHT22;14000;52.056;8.510;2023-04-01T08:10:52;9.20;99.90
26278;DHT22;14000;52.056;8.510;2023-04-01T08:19:09;9.30;99.90
26278;DHT22;14000;52.056;8.510;2023-04-01T08:21:47;9.40;99.90
26278;DHT22;14000;52.056;8.510;2023-04-01T08:24:33;9.40;99.90
26278;DHT22;14000;52.056;8.510;2023-04-01T08:27:05;9.50;99.90
26278;DHT22;14000;52.056;8.510;2023-04-01T08:29:58;9.50;99.90
26278;DHT22;14000;52.056;8.510;2023-04-01T08:33:31;9.60;99.90
26278;DHT22;14000;52.056;8.510;2023-04-01T08:35:39;9.70;99.90
26278;DHT22;14000;52.056;8.510;2023-04-01T08:38:23;9.70;99.90
26278;DHT22;14000;52.056;8.510;2023-04-01T08:41:48;9.80;99.90
26278;DHT22;14000;52.056;8.510;2023-04-01T08:44:24;9.90;99.90
26278;DHT22;14000;52.056;8.510;2023-04-01T08:49:45;9.90;99.90
26278;DHT22;14000;52.056;8.510;2023-04-01T08:52:35;10.00;99.90
26278;DHT22;14000;52.056;8.510;2023-04-01T09:06:39;10.20;99.90
26278;DHT22;14000;52.056;8.510;2023-04-01T09:20:05;10.50;99.90
26278;DHT22;14000;52.056;8.510;2023-04-01T09:22:37;10.60;99.90
26278;DHT22;14000;52.056;8.510;2023-04-01T09:25:30;10.60;99.90
26278;DHT22;14000;52.056;8.510;2023-04-01T09:34:06;10.70;99.90
26278;DHT22;14000;52.056;8.510;2023-04-01T09:36:44;10.70;99.90
26278;DHT22;14000;52.056;8.510;2023-04-01T09:39:36;10.80;99.90
26278;DHT22;14000;52.056;8.510;2023-04-01T09:45:04;10.90;99.90
26278;DHT22;14000;52.056;8.510;2023-04-01T09:48:02;10.90;99.90
26278;DHT22;14000;52.056;8.510;2023-04-01T09:50:52;11.00;99.90
26278;DHT22;14000;52.056;8.510;2023-04-01T09:53:36;11.00;99.90
26278;DHT22;14000;52.056;8.510;2023-04-01T10:01:32;10.90;99.90
26278;DHT22;14000;52.056;8.510;2023-04-01T10:18:17;10.90;99.90
26278;DHT22;14000;52.056;8.510;2023-04-01T10:34:51;11.10;99.90
26278;DHT22;14000;52.056;8.510;2023-04-01T10:41:00;11.40;99.90
26278;DHT22;14000;52.056;8.510;2023-04-01T10:52:43;11.80;99.90
26278;DHT22;14000;52.056;8.510;2023-04-01T11:01:50;11.60;99.90
26278;DHT22;14000;52.056;8.510;2023-04-01T11:21:04;11.40;99.90
26278;DHT22;14000;52.056;8.510;2023-04-01T11:24:12;11.50;99.90
26278;DHT22;14000;52.056;8.510;2023-04-01T11:29:35;11.60;99.90
26278;DHT22;14000;52.056;8.510;2023-04-01T11:35:00;12.00;99.90
26278;DHT22;14000;52.056;8.510;2023-04-01T11:37:42;12.10;99.90
26278;DHT22;14000;52.056;8.510;2023-04-01T11:46:10;12.20;99.90
26278;DHT22;14000;52.056;8.510;2023-04-01T11:48:49;12.00;99.90
26278;DHT22;14000;52.056;8.510;2023-04-01T11:56:38;11.70;99.90
26278;DHT22;14000;52.056;8.510;2023-04-01T11:59:29;11.70;99.90
26278;DHT22;14000;52.056;8.510;2023-04-01T12:02:45;11.60;99.90
26278;DHT22;14000;52.056;8.510;2023-04-01T12:05:48;11.40;99.90
26278;DHT22;14000;52.056;8.510;2023-04-01T12:16:44;11.50;99.90
26278;DHT22;14000;52.056;8.510;2023-04-01T12:19:30;11.50;99.90
26278;DHT22;14000;52.056;8.510;2023-04-01T12:24:49;11.50;99.90
26278;DHT22;14000;52.056;8.510;2023-04-01T12:30:12;11.50;99.90
26278;DHT22;14000;52.056;8.510;2023-04-01T12:38:17;11.60;99.90
26278;DHT22;14000;52.056;8.510;2023-04-01T12:49:09;11.90;99.90
26278;DHT22;14000;52.056;8.510;2023-04-01T12:54:37;11.90;99.90
26278;DHT22;14000;52.056;8.510;2023-04-01T13:06:17;11.50;99.90
26278;DHT22;14000;52.056;8.510;2023-04-01T13:11:23;11.70;99.90
26278;DHT22;14000;52.056;8.510;2023-04-01T13:16:35;11.80;99.90
26278;DHT22;14000;52.056;8.510;2023-04-01T13:19:31;11.70;99.90
26278;DHT22;14000;52.056;8.510;2023-04-01T13:22:15;11.80;99.90
26278;DHT22;14000;52.056;8.510;2023-04-01T13:27:52;11.70;99.90
26278;DHT22;14000;52.056;8.510;2023-04-01T13:30:33;11.70;99.90
26278;DHT22;14000;52.056;8.510;2023-04-01T13:33:27;11.50;99.90
26278;DHT22;14000;52.056;8.510;2023-04-01T13:36:10;11.40;99.90
26278;DHT22;14000;52.056;8.510;2023-04-01T13:39:03;11.40;99.90
26278;DHT22;14000;52.056;8.510;2023-04-01T13:42:00;11.40;99.90
26278;DHT22;14000;52.056;8.510;2023-04-01T13:44:38;11.30;99.90
26278;DHT22;14000;52.056;8.510;2023-04-01T13:47:23;11.40;99.90
26278;DHT22;14000;52.056;8.510;2023-04-01T14:07:56;11.60;99.90
26278;DHT22;14000;52.056;8.510;2023-04-01T14:10:25;11.60;99.90
26278;DHT22;14000;52.056;8.510;2023-04-01T14:12:57;11.60;99.90
26278;DHT22;14000;52.056;8.510;2023-04-01T14:16:13;11.50;99.90
26278;DHT22;14000;52.056;8.510;2023-04-01T14:34:20;11.50;99.90
26278;DHT22;14000;52.056;8.510;2023-04-01T14:36:53;11.50;99.90
26278;DHT22;14000;52.056;8.510;2023-04-01T14:47:59;11.50;99.90
26278;DHT22;14000;52.056;8.510;2023-04-01T14:50:46;11.50;99.90
26278;DHT22;14000;52.056;8.510;2023-04-01T14:53:37;11.50;99.90
26278;DHT22;14000;52.056;8.510;2023-04-01T14:56:04;11.60;99.90
26278;DHT22;14000;52.056;8.510;2023-04-01T15:01:37;11.60;99.90
26278;DHT22;14000;52.056;8.510;2023-04-01T15:07:06;11.60;99.90
26278;DHT22;14000;52.056;8.510;2023-04-01T15:15:23;11.70;99.90
26278;DHT22;14000;52.056;8.510;2023-04-01T15:25:54;11.80;99.90
26278;DHT22;14000;52.056;8.510;2023-04-01T15:28:56;11.70;99.90
26278;DHT22;14000;52.056;8.510;2023-04-01T15:37:05;11.50;99.90
26278;DHT22;14000;52.056;8.510;2023-04-01T15:39:54;11.50;99.90
26278;DHT22;14000;52.056;8.510;2023-04-01T15:45:33;12.50;99.90
26278;DHT22;14000;52.056;8.510;2023-04-01T15:48:20;11.50;99.90
26278;DHT22;14000;52.056;8.510;2023-04-01T15:51:21;11.50;99.90
26278;DHT22;14000;52.056;8.510;2023-04-01T15:56:42;11.50;99.90
26278;DHT22;14000;52.056;8.510;2023-04-01T16:00:09;11.40;99.90
26278;DHT22;14000;52.056;8.510;2023-04-01T16:02:49;11.40;99.90
26278;DHT22;14000;52.056;8.510;2023-04-01T16:05:37;11.40;99.90
26278;DHT22;14000;52.056;8.510;2023-04-01T16:08:41;11.40;99.90
26278;DHT22;14000;52.056;8.510;2023-04-01T16:17:11;11.20;99.90
26278;DHT22;14000;52.056;8.510;2023-04-01T16:19:53;11.10;99.90
26278;DHT22;14000;52.056;8.510;2023-04-01T16:22:34;11.10;99.90
26278;DHT22;14000;52.056;8.510;2023-04-01T16:25:19;11.00;99.90
26278;DHT22;14000;52.056;8.510;2023-04-01T16:28:15;11.00;99.90
26278;DHT22;14000;52.056;8.510;2023-04-01T16:31:06;11.00;99.90
26278;DHT22;14000;52.056;8.510;2023-04-01T16:34:02;11.00;99.90
26278;DHT22;14000;52.056;8.510;2023-04-01T16:36:37;10.90;99.90
26278;DHT22;14000;52.056;8.510;2023-04-01T16:39:09;10.90;99.90
26278;DHT22;14000;52.056;8.510;2023-04-01T16:41:41;10.80;99.90
26278;DHT22;14000;52.056;8.510;2023-04-01T16:44:13;10.80;99.90
26278;DHT22;14000;52.056;8.510;2023-04-01T16:46:44;10.80;99.90
26278;DHT22;14000;52.056;8.510;2023-04-01T16:52:03;10.90;99.90
26278;DHT22;14000;52.056;8.510;2023-04-01T16:55:00;10.90;99.90
26278;DHT22;14000;52.056;8.510;2023-04-01T16:57:52;10.90;99.90
26278;DHT22;14000;52.056;8.510;2023-04-01T17:00:40;10.80;99.90
26278;DHT22;14000;52.056;8.510;2023-04-01T17:03:18;10.80;99.90
26278;DHT22;14000;52.056;8.510;2023-04-01T17:05:57;10.60;99.90
26278;DHT22;14000;52.056;8.510;2023-04-01T17:08:49;10.30;99.90
26278;DHT22;14000;52.056;8.510;2023-04-01T17:11:26;10.20;99.90
26278;DHT22;14000;52.056;8.510;2023-04-01T17:16:36;10.00;99.90
26278;DHT22;14000;52.056;8.510;2023-04-01T17:19:14;9.90;99.90
26278;DHT22;14000;52.056;8.510;2023-04-01T17:30:24;9.60;99.90
26278;DHT22;14000;52.056;8.510;2023-04-01T17:35:56;9.50;99.90
26278;DHT22;14000;52.056;8.510;2023-04-01T17:41:43;9.40;99.90
26278;DHT22;14000;52.056;8.510;2023-04-01T17:44:15;9.30;99.90
26278;DHT22;14000;52.056;8.510;2023-04-01T17:49:37;9.30;99.90
26278;DHT22;14000;52.056;8.510;2023-04-01T18:00:56;9.00;99.90
26278;DHT22;14000;52.056;8.510;2023-04-01T18:17:46;8.80;99.90
26278;DHT22;14000;52.056;8.510;2023-04-01T18:20:32;8.60;99.90
26278;DHT22;14000;52.056;8.510;2023-04-01T18:23:44;8.70;99.90
26278;DHT22;14000;52.056;8.510;2023-04-01T18:26:18;8.60;99.90
26278;DHT22;14000;52.056;8.510;2023-04-01T18:29:11;8.60;99.90
26278;DHT22;14000;52.056;8.510;2023-04-01T18:31:43;8.60;99.90
26278;DHT22;14000;52.056;8.510;2023-04-01T18:34:27;8.60;99.90
26278;DHT22;14000;52.056;8.510;2023-04-01T18:37:19;8.50;99.90
26278;DHT22;14000;52.056;8.510;2023-04-01T18:39:52;8.40;99.90
26278;DHT22;14000;52.056;8.510;2023-04-01T18:45:37;8.50;99.90
26278;DHT22;14000;52.056;8.510;2023-04-01T18:50:56;8.30;99.90
26278;DHT22;14000;52.056;8.510;2023-04-01T18:53:42;8.20;99.90
26278;DHT22;14000;52.056;8.510;2023-04-01T18:56:37;8.20;99.90
26278;DHT22;14000;52.056;8.510;2023-04-01T19:02:25;8.10;99.90
26278;DHT22;14000;52.056;8.510;2023-04-01T19:05:00;8.10;99.90
26278;DHT22;14000;52.056;8.510;2023-04-01T19:10:23;8.00;99.90
26278;DHT22;14000;52.056;8.510;2023-04-01T19:12:57;8.00;99.90
26278;DHT22;14000;52.056;8.510;2023-04-01T19:20:56;7.80;99.90
26278;DHT22;14000;52.056;8.510;2023-04-01T19:25:58;7.70;99.90
26278;DHT22;14000;52.056;8.510;2023-04-01T19:28:47;7.70;99.90
26278;DHT22;14000;52.056;8.510;2023-04-01T19:31:55;7.60;99.90
26278;DHT22;14000;52.056;8.510;2023-04-01T19:34:36;7.50;99.90
26278;DHT22;14000;52.056;8.510;2023-04-01T19:37:26;7.60;99.90
26278;DHT22;14000;52.056;8.510;2023-04-01T19:39:58;7.40;99.90
26278;DHT22;14000;52.056;8.510;2023-04-01T19:45:31;7.30;99.90
26278;DHT22;14000;52.056;8.510;2023-04-01T19:50:58;7.10;99.90
26278;DHT22;14000;52.056;8.510;2023-04-01T19:53:30;7.10;99.90
26278;DHT22;14000;52.056;8.510;2023-04-01T19:56:19;7.00;99.90
26278;DHT22;14000;52.056;8.510;2023-04-01T20:04:44;7.00;99.90
26278;DHT22;14000;52.056;8.510;2023-04-01T20:09:47;6.90;99.90
26278;DHT22;14000;52.056;8.510;2023-04-01T20:14:56;6.90;99.90
26278;DHT22;14000;52.056;8.510;2023-04-01T20:25:15;6.80;99.90
26278;DHT22;14000;52.056;8.510;2023-04-01T20:27:56;6.80;99.90
26278;DHT22;14000;52.056;8.510;2023-04-01T20:42:20;6.80;99.90
26278;DHT22;14000;52.056;8.510;2023-04-01T20:44:37;8.60;99.90
26278;DHT22;14000;52.056;8.510;2023-04-01T20:58:24;6.70;99.90
26278;DHT22;14000;52.056;8.510;2023-04-01T21:15:07;6.60;99.90
26278;DHT22;14000;52.056;8.510;2023-04-01T21:18:00;6.60;99.90
26278;DHT22;14000;52.056;8.510;2023-04-01T21:20:49;6.50;99.90
26278;DHT22;14000;52.056;8.510;2023-04-01T21:27:06;6.40;99.90
26278;DHT22;14000;52.056;8.510;2023-04-01T21:29:40;6.40;99.90
26278;DHT22;14000;52.056;8.510;2023-04-01T21:37:43;6.30;99.90
26278;DHT22;14000;52.056;8.510;2023-04-01T21:46:32;6.30;99.90
26278;DHT22;14000;52.056;8.510;2023-04-01T21:49:29;6.20;99.90
26278;DHT22;14000;52.056;8.510;2023-04-01T22:00:38;6.00;99.90
26278;DHT22;14000;52.056;8.510;2023-04-01T22:03:28;6.00;99.90
26278;DHT22;14000;52.056;8.510;2023-04-01T22:11:34;6.00;99.90
26278;DHT22;14000;52.056;8.510;2023-04-01T22:16:50;5.80;99.90
26278;DHT22;14000;52.056;8.510;2023-04-01T22:22:36;5.80;99.90
26278;DHT22;14000;52.056;8.510;2023-04-01T22:25:11;5.70;99.90
26278;DHT22;14000;52.056;8.510;2023-04-01T22:27:44;5.70;99.90
26278;DHT22;14000;52.056;8.510;2023-04-01T22:32:49;5.60;99.90
26278;DHT22;14000;52.056;8.510;2023-04-01T22:38:18;5.50;99.90
26278;DHT22;14000;52.056;8.510;2023-04-01T22:41:18;5.50;99.90
26278;DHT22;14000;52.056;8.510;2023-04-01T22:43:47;5.50;99.90
26278;DHT22;14000;52.056;8.510;2023-04-01T22:46:43;5.50;99.90
26278;DHT22;14000;52.056;8.510;2023-04-01T22:49:36;5.50;99.90
26278;DHT22;14000;52.056;8.510;2023-04-01T22:52:30;5.50;99.90
26278;DHT22;14000;52.056;8.510;2023-04-01T22:55:02;5.40;99.90
26278;DHT22;14000;52.056;8.510;2023-04-01T23:00:12;5.40;99.90
26278;DHT22;14000;52.056;8.510;2023-04-01T23:02:41;5.40;99.90
26278;DHT22;14000;52.056;8.510;2023-04-01T23:05:12;5.30;99.90
26278;DHT22;14000;52.056;8.510;2023-04-01T23:12:55;5.30;99.90
26278;DHT22;14000;52.056;8.510;2023-04-01T23:15:23;5.30;99.90
26278;DHT22;14000;52.056;8.510;2023-04-01T23:18:14;5.20;99.90
26278;DHT22;14000;52.056;8.510;2023-04-01T23:23:48;5.30;99.90
26278;DHT22;14000;52.056;8.510;2023-04-01T23:26:38;5.20;99.90
26278;DHT22;14000;52.056;8.510;2023-04-01T23:29:12;5.20;99.90
26278;DHT22;14000;52.056;8.510;2023-04-01T23:31:40;5.20;99.90
26278;DHT22;14000;52.056;8.510;2023-04-01T23:36:41;5.20;99.90
26278;DHT22;14000;52.056;8.510;2023-04-01T23:39:34;5.20;99.90
26278;DHT22;14000;52.056;8.510;2023-04-01T23:44:39;5.10;99.90
26278;DHT22;14000;52.056;8.510;2023-04-01T23:47:08;5.10;99.90
26278;DHT22;14000;52.056;8.510;2023-04-01T23:49:40;5.00;99.90
26278;DHT22;14000;52.056;8.510;2023-04-01T23:52:23;5.00;99.90
26278;DHT22;14000;52.056;8.510;2023-04-01T23:54:57;5.00;99.90
26278;DHT22;14000;52.056;8.510;2023-04-01T23:57:29;4.90;99.90
